Time;durP1;ratioP1;P1;durP2;ratioP2;P2;SDS_P1;SDS_P2;PMS_P1;PMS_P2;Temp;Humidity;BMP_temperature;BMP_pressure;BME280_temperature;BME280_humidity;BME280_pressure;Samples;Min_cycle;Max_cycle;Signal;HPM_P1;HPM_P2
2022/10/03 00:00:37;;;;;;;2.30;1.82;;;;;;;;;;1727079;83;21091;-65
2022/10/03 00:03:20;;;;;;;2.60;1.80;;;;;;;;;;1724280;83;21060;-64
2022/10/03 00:05:54;;;;;;;1.98;1.70;;;;;;;;;;1726762;82;21032;-64
2022/10/03 00:08:22;;;;;;;3.47;1.98;;;;;;;;;;1723376;83;21076;-63
2022/10/03 00:10:57;;;;;;;2.35;1.85;;;;;;;;;;1752395;80;21053;-63
2022/10/03 00:13:25;;;;;;;2.50;1.90;;;;;;;;;;1755425;81;21040;-63
2022/10/03 00:16:11;;;;;;;3.65;2.00;;;;;;;;;;1755246;81;21051;-64
2022/10/03 00:18:52;;;;;;;3.05;2.08;;;;;;;;;;1755459;80;21044;-63
2022/10/03 00:21:21;;;;;;;3.83;2.20;;;;;;;;;;1755544;80;21485;-63
2022/10/03 00:23:53;;;;;;;3.25;2.30;;;;;;;;;;1755763;80;21069;-63
2022/10/03 00:26:27;;;;;;;3.55;2.42;;;;;;;;;;1755910;80;21055;-63
2022/10/03 00:29:06;;;;;;;3.90;2.40;;;;;;;;;;1755832;80;21559;-63
2022/10/03 00:31:35;;;;;;;2.98;2.30;;;;;;;;;;1755518;82;21059;-63
2022/10/03 00:34:03;;;;;;;4.10;2.37;;;;;;;;;;1752424;80;21036;-63
2022/10/03 00:36:34;;;;;;;3.25;2.37;;;;;;;;;;1719376;82;21520;-65
2022/10/03 00:39:09;;;;;;;4.62;2.47;;;;;;;;;;1684824;85;21200;-65
2022/10/03 00:41:42;;;;;;;3.80;2.55;;;;;;;;;;1717666;82;21030;-64
2022/10/03 00:44:27;;;;;;;3.52;2.58;;;;;;;;;;1734669;80;21067;-63
2022/10/03 00:46:55;;;;;;;4.67;2.50;;;;;;;;;;1719631;83;21111;-64
2022/10/03 00:49:29;;;;;;;4.10;2.50;;;;;;;;;;1755772;80;21017;-64
2022/10/03 00:52:14;;;;;;;5.58;2.80;;;;;;;;;;1719678;83;21123;-63
2022/10/03 00:54:51;;;;;;;3.25;2.50;;;;;;;;;;1718806;83;22133;-64
2022/10/03 00:57:36;;;;;;;3.83;2.60;;;;;;;;;;1755183;82;21056;-64
2022/10/03 01:00:13;;;;;;;3.47;2.58;;;;;;;;;;1755336;80;21017;-64
2022/10/03 01:05:47;;;;;;;4.10;2.80;;;;;;;;;;1717605;83;21153;-72
2022/10/03 01:08:20;;;;;;;5.05;2.80;;;;;;;;;;1721122;83;21012;-72
2022/10/03 01:10:48;;;;;;;3.67;2.80;;;;;;;;;;1721846;83;21076;-73
2022/10/03 01:13:33;;;;;;;3.47;2.42;;;;;;;;;;1682457;84;21592;-72
2022/10/03 01:16:02;;;;;;;4.30;2.52;;;;;;;;;;1664749;85;21075;-73
2022/10/03 01:18:36;;;;;;;4.92;2.58;;;;;;;;;;1684062;85;21136;-73
2022/10/03 01:21:05;;;;;;;3.92;2.70;;;;;;;;;;1670457;85;21127;-72
2022/10/03 01:23:51;;;;;;;4.28;2.70;;;;;;;;;;1670375;86;21118;-72
2022/10/03 01:26:22;;;;;;;3.98;2.37;;;;;;;;;;1659166;85;21059;-72
2022/10/03 01:31:51;;;;;;;3.62;2.70;;;;;;;;;;1671000;85;21502;-71
2022/10/03 01:34:37;;;;;;;3.97;2.67;;;;;;;;;;1670964;85;21103;-72
2022/10/03 01:37:22;;;;;;;3.58;2.70;;;;;;;;;;1670434;85;21105;-71
2022/10/03 01:39:50;;;;;;;3.58;2.70;;;;;;;;;;1670487;85;21553;-72
2022/10/03 01:42:19;;;;;;;4.95;3.08;;;;;;;;;;1670892;85;20990;-73
2022/10/03 01:44:53;;;;;;;4.67;3.05;;;;;;;;;;1669456;85;21107;-72
2022/10/03 01:47:39;;;;;;;3.90;2.72;;;;;;;;;;1670934;86;21565;-72
2022/10/03 01:50:25;;;;;;;4.55;2.70;;;;;;;;;;1671374;85;21348;-72
2022/10/03 01:54:09;;;;;;;3.80;2.90;;;;;;;;;;1809486;78;22900;-64
2022/10/03 01:56:40;;;;;;;8.40;3.87;;;;;;;;;;1767110;80;21080;-65
2022/10/03 01:59:17;;;;;;;4.05;2.60;;;;;;;;;;1768395;80;20999;-65
2022/10/03 02:02:01;;;;;;;4.85;3.35;;;;;;;;;;1794601;80;22092;-65
2022/10/03 02:04:32;;;;;;;4.42;2.95;;;;;;;;;;1772285;80;21074;-65
2022/10/03 02:07:01;;;;;;;4.67;3.00;;;;;;;;;;1789518;80;21052;-64
2022/10/03 02:09:38;;;;;;;5.42;3.12;;;;;;;;;;1767730;80;21027;-64
2022/10/03 02:12:09;;;;;;;4.90;3.20;;;;;;;;;;1760920;81;21519;-64
2022/10/03 02:14:46;;;;;;;5.08;3.37;;;;;;;;;;1773075;80;21481;-65
2022/10/03 02:17:24;;;;;;;4.10;3.20;;;;;;;;;;1760742;81;21053;-64
2022/10/03 02:19:53;;;;;;;4.08;2.98;;;;;;;;;;1775032;80;21039;-64
2022/10/03 02:22:33;;;;;;;4.37;3.00;;;;;;;;;;1763800;79;21072;-64
2022/10/03 02:25:10;;;;;;;5.00;3.10;;;;;;;;;;1765589;80;21016;-64
2022/10/03 02:27:40;;;;;;;4.05;3.12;;;;;;;;;;1757550;81;21044;-64
2022/10/03 02:30:13;;;;;;;4.55;3.27;;;;;;;;;;1774413;80;21083;-64
2022/10/03 02:33:00;;;;;;;6.87;3.25;;;;;;;;;;1767958;80;21563;-64
2022/10/03 02:35:46;;;;;;;5.58;3.40;;;;;;;;;;1776904;80;21055;-63
2022/10/03 02:38:34;;;;;;;4.78;2.62;;;;;;;;;;1746976;81;21016;-63
2022/10/03 02:41:02;;;;;;;4.37;2.83;;;;;;;;;;1775925;80;21046;-63
2022/10/03 02:43:42;;;;;;;4.80;3.15;;;;;;;;;;1763833;80;21020;-63
2022/10/03 02:46:24;;;;;;;3.80;2.80;;;;;;;;;;1780133;80;21072;-63
2022/10/03 02:49:09;;;;;;;4.17;3.00;;;;;;;;;;1785274;80;21036;-64
2022/10/03 02:51:49;;;;;;;3.62;2.70;;;;;;;;;;1775701;80;21044;-64
2022/10/03 02:54:32;;;;;;;3.75;2.65;;;;;;;;;;1756349;81;21019;-63
2022/10/03 02:57:10;;;;;;;4.12;2.60;;;;;;;;;;1748001;81;21028;-64
2022/10/03 02:59:47;;;;;;;3.85;2.70;;;;;;;;;;1740104;81;21115;-63
2022/10/03 03:02:19;;;;;;;4.05;2.80;;;;;;;;;;1606694;83;21579;-64
2022/10/03 03:05:04;;;;;;;5.40;2.60;;;;;;;;;;1723761;83;21043;-63
2022/10/03 03:07:37;;;;;;;3.45;2.55;;;;;;;;;;1722328;81;21543;-64
2022/10/03 03:10:10;;;;;;;4.33;2.90;;;;;;;;;;1747532;81;21079;-64
2022/10/03 03:12:39;;;;;;;3.08;2.42;;;;;;;;;;1727203;81;21094;-63
2022/10/03 03:15:17;;;;;;;4.70;2.50;;;;;;;;;;1742490;81;21090;-63
2022/10/03 03:18:02;;;;;;;3.67;2.50;;;;;;;;;;1597730;89;21606;-63
2022/10/03 03:20:30;;;;;;;3.10;2.45;;;;;;;;;;1734371;81;21086;-63
2022/10/03 03:23:14;;;;;;;3.35;2.37;;;;;;;;;;1737920;82;21119;-63
2022/10/03 03:25:57;;;;;;;3.40;2.15;;;;;;;;;;1748907;81;21025;-64
2022/10/03 03:28:35;;;;;;;4.63;2.80;;;;;;;;;;1751737;81;21067;-64
2022/10/03 03:31:03;;;;;;;4.37;2.58;;;;;;;;;;1756181;81;21035;-64
2022/10/03 03:33:31;;;;;;;3.60;2.60;;;;;;;;;;1735662;81;21063;-65
2022/10/03 03:35:59;;;;;;;3.87;2.70;;;;;;;;;;1727696;81;21016;-65
2022/10/03 03:38:30;;;;;;;3.85;2.72;;;;;;;;;;1708044;81;21009;-65
2022/10/03 03:41:15;;;;;;;4.42;2.47;;;;;;;;;;1735821;81;21524;-65
2022/10/03 03:44:02;;;;;;;4.58;3.15;;;;;;;;;;1729120;81;21044;-65
2022/10/03 03:46:33;;;;;;;4.85;3.52;;;;;;;;;;1737816;81;21023;-65
2022/10/03 03:49:01;;;;;;;5.37;3.72;;;;;;;;;;1740468;81;21076;-65
2022/10/03 03:51:31;;;;;;;5.90;3.40;;;;;;;;;;1734908;81;21016;-64
2022/10/03 03:54:18;;;;;;;6.15;3.33;;;;;;;;;;1723369;81;21028;-65
2022/10/03 03:57:03;;;;;;;5.12;3.05;;;;;;;;;;1639086;86;21127;-63
2022/10/03 03:59:40;;;;;;;4.78;3.20;;;;;;;;;;1653386;86;21125;-65
2022/10/03 04:02:11;;;;;;;4.42;3.27;;;;;;;;;;1616625;86;21599;-64
2022/10/03 04:04:46;;;;;;;4.08;3.00;;;;;;;;;;1644478;86;21472;-63
2022/10/03 04:07:23;;;;;;;4.67;3.30;;;;;;;;;;1679830;83;21041;-63
2022/10/03 04:10:08;;;;;;;5.05;3.00;;;;;;;;;;1709632;82;21040;-63
2022/10/03 04:12:45;;;;;;;3.08;2.58;;;;;;;;;;1727067;82;21041;-64
2022/10/03 04:15:19;;;;;;;4.45;3.20;;;;;;;;;;1729096;82;21056;-63
2022/10/03 04:20:55;;;;;;;5.87;3.47;;;;;;;;;;1726576;82;21091;-64
2022/10/03 04:23:40;;;;;;;4.08;3.17;;;;;;;;;;1733105;81;21057;-65
2022/10/03 04:26:10;;;;;;;4.40;2.98;;;;;;;;;;1739928;82;21087;-65
2022/10/03 04:28:38;;;;;;;5.40;3.47;;;;;;;;;;1705303;83;21088;-64
2022/10/03 04:31:06;;;;;;;5.15;3.20;;;;;;;;;;1718276;82;21972;-66
2022/10/03 04:33:47;;;;;;;5.75;3.10;;;;;;;;;;1715224;82;21057;-70
2022/10/03 04:36:16;;;;;;;4.33;2.92;;;;;;;;;;1739062;82;21079;-69
2022/10/03 04:39:01;;;;;;;3.50;3.17;;;;;;;;;;1740754;81;21021;-70
2022/10/03 04:41:33;;;;;;;5.22;3.17;;;;;;;;;;1705384;82;21458;-69
2022/10/03 04:47:01;;;;;;;3.70;2.67;;;;;;;;;;1752411;79;76578;-72
2022/10/03 04:49:30;;;;;;;3.98;2.85;;;;;;;;;;1778654;80;20996;-73
2022/10/03 04:52:14;;;;;;;4.35;3.00;;;;;;;;;;1763824;80;21123;-73
2022/10/03 04:54:55;;;;;;;5.03;3.08;;;;;;;;;;1780752;80;21072;-73
2022/10/03 04:57:38;;;;;;;3.55;2.77;;;;;;;;;;1777479;80;21497;-72
2022/10/03 05:00:08;;;;;;;3.65;2.80;;;;;;;;;;1746758;80;21036;-74
2022/10/03 05:02:42;;;;;;;4.17;2.87;;;;;;;;;;1768622;80;21282;-72
2022/10/03 05:05:22;;;;;;;3.58;2.67;;;;;;;;;;1780721;80;21008;-72
2022/10/03 05:08:06;;;;;;;4.28;3.00;;;;;;;;;;1748684;79;21055;-72
2022/10/03 05:10:40;;;;;;;4.73;3.03;;;;;;;;;;1770563;80;21016;-72
2022/10/03 05:13:11;;;;;;;4.25;2.92;;;;;;;;;;1758770;80;21071;-72
2022/10/03 05:15:48;;;;;;;3.90;2.62;;;;;;;;;;1784049;80;21012;-72
2022/10/03 05:18:34;;;;;;;4.28;2.87;;;;;;;;;;1782590;80;21028;-72
2022/10/03 05:21:08;;;;;;;4.90;3.47;;;;;;;;;;1774736;79;21052;-72
2022/10/03 05:23:42;;;;;;;4.40;2.92;;;;;;;;;;1768987;80;21005;-72
2022/10/03 05:26:10;;;;;;;4.17;3.30;;;;;;;;;;1770347;80;20965;-73
2022/10/03 05:28:39;;;;;;;4.33;2.90;;;;;;;;;;1767853;80;21016;-72
2022/10/03 05:31:16;;;;;;;4.85;2.92;;;;;;;;;;1758927;80;20976;-73
2022/10/03 05:33:44;;;;;;;4.00;2.65;;;;;;;;;;1771374;80;21050;-73
2022/10/03 05:36:12;;;;;;;3.67;2.80;;;;;;;;;;1767041;79;21059;-73
2022/10/03 05:38:40;;;;;;;3.67;2.62;;;;;;;;;;1765920;80;21000;-75
2022/10/03 05:41:10;;;;;;;3.50;2.50;;;;;;;;;;1765514;80;20970;-72
2022/10/03 05:43:48;;;;;;;4.25;2.40;;;;;;;;;;1771075;79;21081;-73
2022/10/03 05:46:28;;;;;;;6.53;2.85;;;;;;;;;;1804783;79;21135;-74
2022/10/03 05:49:07;;;;;;;4.72;2.67;;;;;;;;;;1813890;79;21540;-72
2022/10/03 05:51:38;;;;;;;4.50;2.60;;;;;;;;;;1811693;79;21005;-73
2022/10/03 05:54:06;;;;;;;4.03;2.30;;;;;;;;;;1796043;79;21002;-73
2022/10/03 05:56:45;;;;;;;4.37;2.70;;;;;;;;;;1808453;79;21029;-73
2022/10/03 05:59:13;;;;;;;5.62;2.60;;;;;;;;;;1802607;79;21056;-72
2022/10/03 06:01:41;;;;;;;3.90;2.42;;;;;;;;;;1794632;78;21472;-73
2022/10/03 06:04:09;;;;;;;5.72;2.20;;;;;;;;;;1801828;78;21049;-74
2022/10/03 06:06:54;;;;;;;3.70;2.35;;;;;;;;;;1804887;79;20998;-73
2022/10/03 06:09:38;;;;;;;6.28;3.98;;;;;;;;;;1786667;79;21012;-74
2022/10/03 06:12:08;;;;;;;4.60;2.60;;;;;;;;;;1794461;79;21052;-73
2022/10/03 06:14:38;;;;;;;5.03;2.60;;;;;;;;;;1795453;79;21040;-74
2022/10/03 06:17:12;;;;;;;5.08;2.10;;;;;;;;;;1801615;79;20981;-73
2022/10/03 06:19:40;;;;;;;6.22;2.20;;;;;;;;;;1795695;79;22084;-73
2022/10/03 06:22:23;;;;;;;7.08;2.80;;;;;;;;;;1801850;79;21523;-73
2022/10/03 06:24:58;;;;;;;2.35;1.90;;;;;;;;;;1805466;79;21011;-72
2022/10/03 06:27:43;;;;;;;4.05;2.20;;;;;;;;;;1777204;79;21041;-72
2022/10/03 06:30:11;;;;;;;4.08;2.10;;;;;;;;;;1799830;79;21055;-72
2022/10/03 06:32:39;;;;;;;4.78;2.45;;;;;;;;;;1799370;79;21032;-73
2022/10/03 06:35:19;;;;;;;4.42;2.27;;;;;;;;;;1789158;79;21091;-73
2022/10/03 06:37:50;;;;;;;5.45;2.25;;;;;;;;;;1814910;79;21067;-73
2022/10/03 06:40:33;;;;;;;3.27;1.90;;;;;;;;;;1808694;78;21004;-73
2022/10/03 06:43:18;;;;;;;5.17;2.10;;;;;;;;;;1786308;79;21079;-73
2022/10/03 06:46:03;;;;;;;4.42;2.10;;;;;;;;;;1798976;79;21225;-73
2022/10/03 06:48:32;;;;;;;4.67;2.00;;;;;;;;;;1790656;79;21059;-74
2022/10/03 06:51:03;;;;;;;3.47;2.00;;;;;;;;;;1775502;79;21005;-74
2022/10/03 06:53:32;;;;;;;2.92;1.90;;;;;;;;;;1778987;79;21079;-74
2022/10/03 06:56:06;;;;;;;3.30;1.95;;;;;;;;;;1777479;79;21437;-75
2022/10/03 06:58:52;;;;;;;4.08;1.95;;;;;;;;;;1733315;81;22053;-73
2022/10/03 07:01:23;;;;;;;3.70;1.95;;;;;;;;;;1742645;81;21032;-74
2022/10/03 07:03:58;;;;;;;3.52;2.20;;;;;;;;;;1740687;81;21526;-73
2022/10/03 07:06:44;;;;;;;3.77;2.10;;;;;;;;;;1780409;79;21045;-74
2022/10/03 07:09:22;;;;;;;4.00;2.10;;;;;;;;;;1774085;79;21048;-72
2022/10/03 07:11:50;;;;;;;5.20;2.80;;;;;;;;;;1776868;79;21477;-72
2022/10/03 07:14:17;;;;;;;6.17;2.50;;;;;;;;;;1774612;79;21016;-73
2022/10/03 07:16:49;;;;;;;4.58;2.42;;;;;;;;;;1789685;79;21058;-73
2022/10/03 07:19:20;;;;;;;3.98;2.08;;;;;;;;;;1781101;79;20993;-71
2022/10/03 07:21:58;;;;;;;2.17;1.75;;;;;;;;;;1796158;79;21029;-75
2022/10/03 07:24:35;;;;;;;3.12;1.92;;;;;;;;;;1783080;79;20992;-76
2022/10/03 07:27:22;;;;;;;3.30;1.77;;;;;;;;;;1761485;79;21032;-75
2022/10/03 07:30:08;;;;;;;3.95;1.90;;;;;;;;;;1760868;79;21061;-78
2022/10/03 07:32:38;;;;;;;3.22;2.17;;;;;;;;;;1764829;79;21033;-82
2022/10/03 07:35:06;;;;;;;2.87;1.98;;;;;;;;;;1748442;79;21037;-79
2022/10/03 07:40:30;;;;;;;5.60;1.92;;;;;;;;;;1774136;79;21599;-80
2022/10/03 07:43:16;;;;;;;2.92;2.08;;;;;;;;;;1786998;79;21029;-77
2022/10/03 07:45:46;;;;;;;3.30;2.35;;;;;;;;;;1684188;83;21084;-82
2022/10/03 07:48:23;;;;;;;6.00;2.25;;;;;;;;;;1708884;82;21045;-80
2022/10/03 07:50:51;;;;;;;6.85;2.30;;;;;;;;;;1747267;80;20991;-78
2022/10/03 07:53:31;;;;;;;3.83;2.40;;;;;;;;;;1781131;80;21032;-75
2022/10/03 07:56:08;;;;;;;5.03;2.40;;;;;;;;;;1773489;80;21067;-75
2022/10/03 07:58:42;;;;;;;3.75;2.25;;;;;;;;;;1784420;80;21036;-75
2022/10/03 08:01:16;;;;;;;5.28;2.40;;;;;;;;;;1769108;80;20980;-74
2022/10/03 08:03:44;;;;;;;6.95;2.45;;;;;;;;;;1762879;80;21551;-77
2022/10/03 08:06:12;;;;;;;4.67;2.50;;;;;;;;;;1776519;80;21011;-75
2022/10/03 08:08:52;;;;;;;4.75;2.30;;;;;;;;;;1771189;80;21020;-76
2022/10/03 08:11:24;;;;;;;3.90;2.50;;;;;;;;;;1766313;80;21000;-77
2022/10/03 08:13:52;;;;;;;5.00;3.20;;;;;;;;;;1785308;80;21095;-77
2022/10/03 08:16:26;;;;;;;5.20;2.50;;;;;;;;;;1786695;80;20992;-79
2022/10/03 08:19:00;;;;;;;4.87;2.37;;;;;;;;;;1768704;79;21004;-73
2022/10/03 08:21:43;;;;;;;6.45;2.90;;;;;;;;;;1776937;79;20994;-76
2022/10/03 08:24:23;;;;;;;2.83;2.17;;;;;;;;;;1793522;80;21023;-81
2022/10/03 08:27:06;;;;;;;3.40;2.00;;;;;;;;;;1758122;80;21063;-81
2022/10/03 08:29:37;;;;;;;5.17;2.40;;;;;;;;;;1760248;80;21086;-80
2022/10/03 08:32:14;;;;;;;6.03;2.70;;;;;;;;;;1764364;80;21035;-79
2022/10/03 08:34:45;;;;;;;5.55;2.40;;;;;;;;;;1770129;80;21035;-75
2022/10/03 08:37:13;;;;;;;7.15;2.83;;;;;;;;;;1770887;80;21074;-75
2022/10/03 08:39:51;;;;;;;3.87;2.70;;;;;;;;;;1777313;80;21080;-75
2022/10/03 08:42:37;;;;;;;4.95;2.70;;;;;;;;;;1694553;84;21076;-74
2022/10/03 08:45:08;;;;;;;5.67;2.30;;;;;;;;;;1767623;78;21067;-73
2022/10/03 08:47:46;;;;;;;3.25;2.30;;;;;;;;;;1779902;78;21031;-74
2022/10/03 08:50:31;;;;;;;3.42;2.05;;;;;;;;;;1811650;78;20965;-75
2022/10/03 08:53:14;;;;;;;6.50;2.40;;;;;;;;;;1787969;78;21271;-72
2022/10/03 08:56:00;;;;;;;2.93;2.27;;;;;;;;;;1792909;78;20982;-74
2022/10/03 08:58:45;;;;;;;3.12;1.95;;;;;;;;;;1806255;78;21602;-73
2022/10/03 09:01:22;;;;;;;3.98;2.55;;;;;;;;;;1801241;78;20981;-78
2022/10/03 09:03:59;;;;;;;5.15;2.40;;;;;;;;;;1803884;78;20980;-79
2022/10/03 09:06:44;;;;;;;4.90;2.37;;;;;;;;;;1802170;78;21341;-75
2022/10/03 09:09:12;;;;;;;2.98;2.37;;;;;;;;;;1795013;78;20989;-76
2022/10/03 09:11:43;;;;;;;3.90;2.33;;;;;;;;;;1800010;78;21016;-75
2022/10/03 09:14:27;;;;;;;3.72;2.22;;;;;;;;;;1800055;78;21012;-77
2022/10/03 09:17:07;;;;;;;2.83;2.02;;;;;;;;;;1801991;78;21024;-79
2022/10/03 09:19:35;;;;;;;2.87;2.10;;;;;;;;;;1809739;78;21025;-78
2022/10/03 09:22:03;;;;;;;3.20;2.15;;;;;;;;;;1799811;79;21036;-77
2022/10/03 09:24:31;;;;;;;2.83;2.10;;;;;;;;;;1807826;78;21028;-79
2022/10/03 09:26:59;;;;;;;3.22;1.95;;;;;;;;;;1770501;78;21001;-73
2022/10/03 09:29:45;;;;;;;4.22;2.17;;;;;;;;;;1806996;78;21052;-76
2022/10/03 09:32:28;;;;;;;3.17;2.08;;;;;;;;;;1809336;79;21043;-76
2022/10/03 09:35:02;;;;;;;3.35;2.17;;;;;;;;;;1804959;78;21016;-75
2022/10/03 09:37:36;;;;;;;4.00;2.10;;;;;;;;;;1795057;79;21053;-75
2022/10/03 09:40:21;;;;;;;4.42;1.90;;;;;;;;;;1797923;78;21009;-75
2022/10/03 09:42:49;;;;;;;4.47;2.45;;;;;;;;;;1796221;79;21504;-74
2022/10/03 09:45:20;;;;;;;3.30;2.02;;;;;;;;;;1800820;78;21101;-76
2022/10/03 09:48:05;;;;;;;3.90;2.10;;;;;;;;;;1793988;79;21523;-75
2022/10/03 09:50:36;;;;;;;4.83;2.00;;;;;;;;;;1803782;79;21329;-73
2022/10/03 09:53:07;;;;;;;3.37;1.98;;;;;;;;;;1796626;79;20978;-75
2022/10/03 09:55:41;;;;;;;4.58;2.00;;;;;;;;;;1788758;78;20988;-76
2022/10/03 09:58:10;;;;;;;2.87;1.90;;;;;;;;;;1794125;79;21016;-74
2022/10/03 10:00:53;;;;;;;3.62;1.77;;;;;;;;;;1802113;78;20996;-74
2022/10/03 10:03:27;;;;;;;2.90;1.80;;;;;;;;;;1800641;79;21548;-76
2022/10/03 10:05:55;;;;;;;2.87;1.95;;;;;;;;;;1764580;79;21076;-78
2022/10/03 10:08:23;;;;;;;3.00;1.90;;;;;;;;;;1788573;79;21012;-76
2022/10/03 10:11:07;;;;;;;4.95;2.15;;;;;;;;;;1795999;79;21059;-76
2022/10/03 10:13:36;;;;;;;3.33;1.80;;;;;;;;;;1797864;79;21031;-73
2022/10/03 10:16:08;;;;;;;3.42;1.92;;;;;;;;;;1761054;80;20979;-73
2022/10/03 10:18:42;;;;;;;3.33;1.77;;;;;;;;;;1746622;81;21097;-73
2022/10/03 10:21:26;;;;;;;3.45;2.08;;;;;;;;;;1728578;82;21028;-76
2022/10/03 10:23:56;;;;;;;3.30;1.75;;;;;;;;;;1774054;80;20981;-75
2022/10/03 10:26:36;;;;;;;2.62;2.00;;;;;;;;;;1761569;80;21000;-78
2022/10/03 10:29:13;;;;;;;4.60;2.00;;;;;;;;;;1767796;80;21001;-76
2022/10/03 10:31:53;;;;;;;3.00;2.08;;;;;;;;;;1797831;78;21185;-75
2022/10/03 10:34:21;;;;;;;4.22;1.90;;;;;;;;;;1806921;79;21023;-74
2022/10/03 10:36:49;;;;;;;2.47;1.92;;;;;;;;;;1788531;79;21503;-75
2022/10/03 10:39:23;;;;;;;4.62;1.95;;;;;;;;;;1806773;78;20992;-78
2022/10/03 10:41:51;;;;;;;3.70;1.95;;;;;;;;;;1811399;79;21052;-78
2022/10/03 10:44:18;;;;;;;2.33;1.70;;;;;;;;;;1797927;78;21654;-75
2022/10/03 10:47:03;;;;;;;3.08;1.95;;;;;;;;;;1791138;78;21005;-75
2022/10/03 10:49:44;;;;;;;2.58;2.00;;;;;;;;;;1766324;80;20999;-76
2022/10/03 10:52:13;;;;;;;4.20;2.17;;;;;;;;;;1768714;80;21312;-76
2022/10/03 10:54:41;;;;;;;3.90;2.17;;;;;;;;;;1766913;80;21025;-75
2022/10/03 10:57:27;;;;;;;3.52;2.00;;;;;;;;;;1780851;80;21324;-79
2022/10/03 11:00:16;;;;;;;1.87;1.55;;;;;;;;;;1774958;80;21019;-79
2022/10/03 11:03:01;;;;;;;2.77;2.17;;;;;;;;;;1774892;80;21069;-77
2022/10/03 11:05:35;;;;;;;4.95;2.27;;;;;;;;;;1735105;81;21619;-76
2022/10/03 11:08:19;;;;;;;6.15;1.95;;;;;;;;;;1767109;79;21060;-77
2022/10/03 11:11:00;;;;;;;3.70;2.17;;;;;;;;;;1765054;79;21082;-73
2022/10/03 11:13:44;;;;;;;4.08;2.10;;;;;;;;;;1727053;82;21009;-73
2022/10/03 11:16:13;;;;;;;2.98;1.90;;;;;;;;;;1774825;80;21042;-74
2022/10/03 11:18:59;;;;;;;5.42;2.30;;;;;;;;;;1781391;80;21008;-74
2022/10/03 11:21:39;;;;;;;4.37;2.08;;;;;;;;;;1771892;80;21550;-76
2022/10/03 11:24:07;;;;;;;2.80;1.90;;;;;;;;;;1737718;82;21496;-77
2022/10/03 11:26:51;;;;;;;3.52;2.00;;;;;;;;;;1734766;82;21631;-77
2022/10/03 11:29:26;;;;;;;2.90;1.90;;;;;;;;;;1736768;82;21489;-77
2022/10/03 11:32:09;;;;;;;2.52;1.90;;;;;;;;;;1724746;82;21064;-77
2022/10/03 11:34:49;;;;;;;7.55;2.25;;;;;;;;;;1733854;81;21004;-75
2022/10/03 11:37:26;;;;;;;2.95;1.90;;;;;;;;;;1731945;82;21083;-72
2022/10/03 11:40:00;;;;;;;3.90;2.22;;;;;;;;;;1725428;82;21056;-67
2022/10/03 11:42:31;;;;;;;4.65;1.90;;;;;;;;;;1731269;81;21003;-67
2022/10/03 11:45:00;;;;;;;1.82;1.70;;;;;;;;;;1679203;82;21153;-68
2022/10/03 11:47:30;;;;;;;4.05;2.12;;;;;;;;;;1743672;81;21507;-68
2022/10/03 11:49:58;;;;;;;3.17;1.95;;;;;;;;;;1760865;80;21564;-68
2022/10/03 11:52:34;;;;;;;3.62;1.85;;;;;;;;;;1759242;80;21047;-69
2022/10/03 11:55:05;;;;;;;3.15;1.70;;;;;;;;;;1725371;81;21096;-70
2022/10/03 11:57:35;;;;;;;4.00;1.80;;;;;;;;;;1749594;78;21059;-70
2022/10/03 12:00:06;;;;;;;2.33;2.12;;;;;;;;;;1806671;78;20974;-68
2022/10/03 12:02:50;;;;;;;2.00;1.80;;;;;;;;;;1796404;78;20946;-68
2022/10/03 12:05:30;;;;;;;2.30;1.87;;;;;;;;;;1794719;78;21041;-68
2022/10/03 12:10:45;;;;;;;2.72;2.33;;;;;;;;;;1800954;79;21020;-68
2022/10/03 12:13:16;;;;;;;2.98;2.47;;;;;;;;;;1811984;79;21041;-67
2022/10/03 12:15:50;;;;;;;3.50;2.00;;;;;;;;;;1804469;79;21071;-69
2022/10/03 12:18:22;;;;;;;4.20;1.90;;;;;;;;;;1802138;79;21037;-69
2022/10/03 12:21:02;;;;;;;3.58;2.08;;;;;;;;;;1782823;78;21044;-77
2022/10/03 12:23:31;;;;;;;2.35;2.00;;;;;;;;;;1800576;79;20997;-71
2022/10/03 12:25:57;;;;;;;2.70;1.80;;;;;;;;;;1807739;78;21029;-71
2022/10/03 12:28:24;;;;;;;6.85;2.80;;;;;;;;;;1796678;78;21016;-70
2022/10/03 12:30:56;;;;;;;3.80;2.15;;;;;;;;;;1797971;78;20997;-75
2022/10/03 12:33:39;;;;;;;5.45;2.20;;;;;;;;;;1794041;79;20996;-74
2022/10/03 12:36:14;;;;;;;3.12;2.08;;;;;;;;;;1784026;78;20957;-73
2022/10/03 12:38:59;;;;;;;3.05;1.90;;;;;;;;;;1774048;78;21023;-75
2022/10/03 12:41:26;;;;;;;3.42;2.58;;;;;;;;;;1798465;78;21034;-71
2022/10/03 12:44:03;;;;;;;2.60;1.82;;;;;;;;;;1790547;78;21048;-72
2022/10/03 12:46:36;;;;;;;2.90;1.80;;;;;;;;;;1800191;78;20984;-68
2022/10/03 12:49:16;;;;;;;6.92;1.90;;;;;;;;;;1782568;79;21218;-71
2022/10/03 12:51:58;;;;;;;3.02;1.90;;;;;;;;;;1777888;79;21010;-72
2022/10/03 12:54:32;;;;;;;4.08;1.80;;;;;;;;;;1744611;79;20992;-71
2022/10/03 12:57:09;;;;;;;1.87;1.62;;;;;;;;;;1782649;79;21020;-73
2022/10/03 12:59:39;;;;;;;3.47;1.92;;;;;;;;;;1778601;79;21004;-78
2022/10/03 13:02:19;;;;;;;3.08;1.50;;;;;;;;;;1782253;79;21576;-79
2022/10/03 13:04:51;;;;;;;2.85;1.70;;;;;;;;;;1780118;79;21032;-78
2022/10/03 13:07:19;;;;;;;3.70;2.00;;;;;;;;;;1771744;79;21036;-79
2022/10/03 13:09:59;;;;;;;2.20;1.65;;;;;;;;;;1765352;80;21052;-76
2022/10/03 13:12:44;;;;;;;2.00;1.75;;;;;;;;;;1768299;79;21587;-78
2022/10/03 13:15:29;;;;;;;2.25;1.80;;;;;;;;;;1766821;79;21028;-79
2022/10/03 13:18:12;;;;;;;3.35;2.00;;;;;;;;;;1746397;81;21327;-78
2022/10/03 13:20:42;;;;;;;2.90;1.83;;;;;;;;;;1734128;81;21086;-77
2022/10/03 13:23:29;;;;;;;2.80;1.90;;;;;;;;;;1766481;80;22333;-78
2022/10/03 13:26:03;;;;;;;2.95;2.15;;;;;;;;;;1767470;79;21013;-78
2022/10/03 13:28:37;;;;;;;3.15;1.60;;;;;;;;;;1770533;79;21325;-70
2022/10/03 13:31:08;;;;;;;4.22;2.17;;;;;;;;;;1779127;79;21093;-70
2022/10/03 13:33:36;;;;;;;3.72;2.25;;;;;;;;;;1782756;79;21068;-73
2022/10/03 13:36:08;;;;;;;3.47;1.90;;;;;;;;;;1774175;79;21009;-72
2022/10/03 13:38:54;;;;;;;3.10;1.80;;;;;;;;;;1768767;79;21061;-72
2022/10/03 13:41:39;;;;;;;3.35;1.70;;;;;;;;;;1777910;79;21021;-72
2022/10/03 13:44:13;;;;;;;4.53;2.05;;;;;;;;;;1778276;79;21622;-69
2022/10/03 13:46:43;;;;;;;4.22;2.90;;;;;;;;;;1777200;79;21005;-68
2022/10/03 13:49:13;;;;;;;3.70;1.98;;;;;;;;;;1786474;78;21009;-69
2022/10/03 13:51:43;;;;;;;3.95;2.50;;;;;;;;;;1795566;78;21028;-70
2022/10/03 13:54:14;;;;;;;4.10;2.87;;;;;;;;;;1797578;78;21524;-69
2022/10/03 13:56:44;;;;;;;3.17;2.00;;;;;;;;;;1795040;78;20971;-69
2022/10/03 13:59:21;;;;;;;2.52;1.72;;;;;;;;;;1793340;78;21841;-70
2022/10/03 14:01:49;;;;;;;4.28;2.27;;;;;;;;;;1796839;78;21045;-72
2022/10/03 14:04:20;;;;;;;2.95;2.30;;;;;;;;;;1797168;78;21020;-72
2022/10/03 14:06:51;;;;;;;3.58;2.27;;;;;;;;;;1794550;78;21045;-69
2022/10/03 14:11:21;;;;;;;2.33;1.90;;;;;;;;;;1801320;78;22887;-65
2022/10/03 14:14:01;;;;;;;3.52;2.20;;;;;;;;;;1762170;80;21079;-64
2022/10/03 14:16:31;;;;;;;5.05;2.70;;;;;;;;;;1759191;80;21905;-64
2022/10/03 14:19:15;;;;;;;4.92;3.10;;;;;;;;;;1759964;80;20986;-63
2022/10/03 14:21:46;;;;;;;5.33;2.70;;;;;;;;;;1762294;80;22281;-65
2022/10/03 14:24:31;;;;;;;5.22;2.80;;;;;;;;;;1760824;80;21034;-65
2022/10/03 14:26:59;;;;;;;3.95;2.92;;;;;;;;;;1759109;81;21053;-63
2022/10/03 14:29:30;;;;;;;3.55;2.20;;;;;;;;;;1759806;81;21097;-65
2022/10/03 14:31:57;;;;;;;2.15;1.90;;;;;;;;;;1760916;80;21052;-63
2022/10/03 14:34:25;;;;;;;3.12;2.25;;;;;;;;;;1764036;80;21077;-65
2022/10/03 14:36:57;;;;;;;2.62;2.20;;;;;;;;;;1759944;81;21656;-64
2022/10/03 14:39:31;;;;;;;4.22;2.20;;;;;;;;;;1760266;81;21044;-63
2022/10/03 14:42:08;;;;;;;5.53;2.47;;;;;;;;;;1758774;80;21024;-63
2022/10/03 14:44:36;;;;;;;3.33;2.30;;;;;;;;;;1749382;80;21629;-65
2022/10/03 14:47:04;;;;;;;4.00;2.17;;;;;;;;;;1728786;81;21480;-62
2022/10/03 14:49:31;;;;;;;3.62;2.47;;;;;;;;;;1728868;81;21041;-64
2022/10/03 14:52:00;;;;;;;4.47;2.70;;;;;;;;;;1716357;83;21028;-63
2022/10/03 14:54:26;;;;;;;4.58;2.40;;;;;;;;;;1722427;81;21017;-62
2022/10/03 14:56:53;;;;;;;4.25;2.47;;;;;;;;;;1712360;83;21033;-64
2022/10/03 14:59:23;;;;;;;4.47;2.77;;;;;;;;;;1718056;81;20982;-64
2022/10/03 15:01:50;;;;;;;3.80;2.90;;;;;;;;;;1726553;81;21037;-64
2022/10/03 15:04:22;;;;;;;3.77;2.30;;;;;;;;;;1717767;83;21080;-64
2022/10/03 15:06:52;;;;;;;4.47;3.00;;;;;;;;;;1713771;83;21021;-64
2022/10/03 15:09:19;;;;;;;5.33;2.70;;;;;;;;;;1724162;82;21029;-63
2022/10/03 15:11:51;;;;;;;3.55;2.42;;;;;;;;;;1726268;81;21056;-63
2022/10/03 15:14:19;;;;;;;4.67;2.30;;;;;;;;;;1722772;81;21505;-63
2022/10/03 15:16:52;;;;;;;3.83;2.35;;;;;;;;;;1726138;81;21599;-63
2022/10/03 15:19:19;;;;;;;3.92;2.20;;;;;;;;;;1727345;81;22500;-63
2022/10/03 15:21:46;;;;;;;5.08;2.62;;;;;;;;;;1721495;81;21051;-63
2022/10/03 15:24:14;;;;;;;4.45;2.33;;;;;;;;;;1718156;81;22139;-63
2022/10/03 15:26:41;;;;;;;4.22;2.27;;;;;;;;;;1718681;83;21428;-64
2022/10/03 15:29:09;;;;;;;3.72;2.60;;;;;;;;;;1721259;83;21099;-70
2022/10/03 15:31:47;;;;;;;3.52;2.67;;;;;;;;;;1722036;81;21059;-69
2022/10/03 15:34:13;;;;;;;4.90;2.83;;;;;;;;;;1711895;81;22050;-66
2022/10/03 15:36:40;;;;;;;3.20;2.12;;;;;;;;;;1717427;81;22223;-63
2022/10/03 15:39:20;;;;;;;6.53;2.40;;;;;;;;;;1726877;81;21046;-64
2022/10/03 15:41:49;;;;;;;2.65;2.00;;;;;;;;;;1722290;81;21054;-64
2022/10/03 15:44:20;;;;;;;3.55;2.25;;;;;;;;;;1716874;83;21092;-64
2022/10/03 15:46:57;;;;;;;3.20;2.10;;;;;;;;;;1727154;82;21079;-64
2022/10/03 15:49:30;;;;;;;3.25;2.17;;;;;;;;;;1713895;83;21004;-64